sensor_id;sensor_type;location;lat;lon;timestamp;P1;durP1;ratioP1;P2;durP2;ratioP2
41546;SDS011;27271;45.412;10.852;2022-07-15T00:01:07;7.00;;;4.03;;
41546;SDS011;27271;45.412;10.852;2022-07-15T00:04:30;5.40;;;3.20;;
41546;SDS011;27271;45.412;10.852;2022-07-15T00:07:52;6.90;;;4.22;;
41546;SDS011;27271;45.412;10.852;2022-07-15T00:11:14;6.57;;;4.30;;
41546;SDS011;27271;45.412;10.852;2022-07-15T00:14:37;6.35;;;4.10;;
41546;SDS011;27271;45.412;10.852;2022-07-15T00:18:00;6.30;;;3.70;;
41546;SDS011;27271;45.412;10.852;2022-07-15T00:21:26;5.55;;;3.53;;
41546;SDS011;27271;45.412;10.852;2022-07-15T00:24:48;4.53;;;3.83;;
41546;SDS011;27271;45.412;10.852;2022-07-15T00:28:10;4.68;;;4.18;;
41546;SDS011;27271;45.412;10.852;2022-07-15T00:31:33;6.63;;;4.05;;
41546;SDS011;27271;45.412;10.852;2022-07-15T00:34:55;4.82;;;3.95;;
41546;SDS011;27271;45.412;10.852;2022-07-15T00:38:17;5.10;;;4.03;;
41546;SDS011;27271;45.412;10.852;2022-07-15T00:41:40;4.47;;;3.70;;
41546;SDS011;27271;45.412;10.852;2022-07-15T00:45:03;4.93;;;3.55;;
41546;SDS011;27271;45.412;10.852;2022-07-15T00:48:25;7.50;;;4.18;;
41546;SDS011;27271;45.412;10.852;2022-07-15T00:51:49;7.22;;;3.90;;
41546;SDS011;27271;45.412;10.852;2022-07-15T00:55:13;4.57;;;3.53;;
41546;SDS011;27271;45.412;10.852;2022-07-15T00:58:36;6.72;;;3.88;;
41546;SDS011;27271;45.412;10.852;2022-07-15T01:02:01;4.60;;;3.38;;
41546;SDS011;27271;45.412;10.852;2022-07-15T01:05:23;6.38;;;3.67;;
41546;SDS011;27271;45.412;10.852;2022-07-15T01:08:46;6.47;;;3.47;;
41546;SDS011;27271;45.412;10.852;2022-07-15T01:12:10;4.13;;;3.45;;
41546;SDS011;27271;45.412;10.852;2022-07-15T01:15:32;3.97;;;3.20;;
41546;SDS011;27271;45.412;10.852;2022-07-15T01:18:56;5.78;;;3.90;;
41546;SDS011;27271;45.412;10.852;2022-07-15T01:22:24;3.75;;;3.20;;
41546;SDS011;27271;45.412;10.852;2022-07-15T01:25:47;3.75;;;3.35;;
41546;SDS011;27271;45.412;10.852;2022-07-15T01:29:10;4.85;;;3.60;;
41546;SDS011;27271;45.412;10.852;2022-07-15T01:32:34;4.63;;;3.63;;
41546;SDS011;27271;45.412;10.852;2022-07-15T01:35:56;5.85;;;3.92;;
41546;SDS011;27271;45.412;10.852;2022-07-15T01:39:20;6.47;;;3.90;;
41546;SDS011;27271;45.412;10.852;2022-07-15T01:43:00;7.97;;;5.20;;
41546;SDS011;27271;45.412;10.852;2022-07-15T01:46:22;5.13;;;3.45;;
41546;SDS011;27271;45.412;10.852;2022-07-15T01:49:44;7.65;;;3.63;;
41546;SDS011;27271;45.412;10.852;2022-07-15T01:53:06;4.30;;;3.03;;
41546;SDS011;27271;45.412;10.852;2022-07-15T01:56:28;8.35;;;3.80;;
41546;SDS011;27271;45.412;10.852;2022-07-15T01:59:50;4.72;;;3.28;;
41546;SDS011;27271;45.412;10.852;2022-07-15T02:03:36;4.43;;;3.72;;
41546;SDS011;27271;45.412;10.852;2022-07-15T02:06:59;4.55;;;3.60;;
41546;SDS011;27271;45.412;10.852;2022-07-15T02:10:26;6.35;;;3.97;;
41546;SDS011;27271;45.412;10.852;2022-07-15T02:14:06;4.80;;;3.63;;
41546;SDS011;27271;45.412;10.852;2022-07-15T02:17:28;3.90;;;3.45;;
41546;SDS011;27271;45.412;10.852;2022-07-15T02:20:50;9.32;;;5.28;;
41546;SDS011;27271;45.412;10.852;2022-07-15T02:24:13;6.97;;;4.70;;
41546;SDS011;27271;45.412;10.852;2022-07-15T02:27:36;5.30;;;4.03;;
41546;SDS011;27271;45.412;10.852;2022-07-15T02:30:58;5.10;;;3.58;;
41546;SDS011;27271;45.412;10.852;2022-07-15T02:34:21;5.03;;;3.65;;
41546;SDS011;27271;45.412;10.852;2022-07-15T02:37:43;5.75;;;4.28;;
41546;SDS011;27271;45.412;10.852;2022-07-15T02:41:06;17.90;;;4.57;;
41546;SDS011;27271;45.412;10.852;2022-07-15T02:44:29;5.07;;;3.85;;
41546;SDS011;27271;45.412;10.852;2022-07-15T02:47:52;5.85;;;4.07;;
41546;SDS011;27271;45.412;10.852;2022-07-15T02:51:21;4.57;;;4.00;;
41546;SDS011;27271;45.412;10.852;2022-07-15T02:54:44;5.55;;;3.90;;
41546;SDS011;27271;45.412;10.852;2022-07-15T02:58:06;4.40;;;3.65;;
41546;SDS011;27271;45.412;10.852;2022-07-15T03:01:29;5.32;;;3.70;;
41546;SDS011;27271;45.412;10.852;2022-07-15T03:04:54;4.80;;;3.65;;
41546;SDS011;27271;45.412;10.852;2022-07-15T03:08:16;5.63;;;3.63;;
41546;SDS011;27271;45.412;10.852;2022-07-15T03:11:39;6.75;;;4.18;;
41546;SDS011;27271;45.412;10.852;2022-07-15T03:15:01;5.28;;;4.18;;
41546;SDS011;27271;45.412;10.852;2022-07-15T03:18:27;5.32;;;4.00;;
41546;SDS011;27271;45.412;10.852;2022-07-15T03:21:49;5.20;;;4.07;;
41546;SDS011;27271;45.412;10.852;2022-07-15T03:25:14;5.95;;;3.83;;
41546;SDS011;27271;45.412;10.852;2022-07-15T03:28:37;4.13;;;3.13;;
41546;SDS011;27271;45.412;10.852;2022-07-15T03:32:01;4.50;;;3.20;;
41546;SDS011;27271;45.412;10.852;2022-07-15T03:35:24;4.20;;;3.58;;
41546;SDS011;27271;45.412;10.852;2022-07-15T03:38:47;6.20;;;3.88;;
41546;SDS011;27271;45.412;10.852;2022-07-15T03:42:10;6.65;;;3.70;;
41546;SDS011;27271;45.412;10.852;2022-07-15T03:45:36;4.88;;;4.10;;
41546;SDS011;27271;45.412;10.852;2022-07-15T03:48:58;5.45;;;3.50;;
41546;SDS011;27271;45.412;10.852;2022-07-15T03:52:21;6.68;;;4.20;;
41546;SDS011;27271;45.412;10.852;2022-07-15T03:55:43;7.78;;;3.90;;
41546;SDS011;27271;45.412;10.852;2022-07-15T03:59:06;8.50;;;4.47;;
41546;SDS011;27271;45.412;10.852;2022-07-15T04:02:28;4.93;;;4.15;;
41546;SDS011;27271;45.412;10.852;2022-07-15T04:05:52;5.32;;;3.65;;
41546;SDS011;27271;45.412;10.852;2022-07-15T04:09:14;5.30;;;4.03;;
41546;SDS011;27271;45.412;10.852;2022-07-15T04:12:36;5.15;;;3.80;;
41546;SDS011;27271;45.412;10.852;2022-07-15T04:16:05;5.03;;;3.70;;
41546;SDS011;27271;45.412;10.852;2022-07-15T04:19:29;4.95;;;3.58;;
41546;SDS011;27271;45.412;10.852;2022-07-15T04:22:53;6.03;;;4.30;;
41546;SDS011;27271;45.412;10.852;2022-07-15T04:26:15;6.78;;;4.10;;
41546;SDS011;27271;45.412;10.852;2022-07-15T04:29:38;7.00;;;4.28;;
41546;SDS011;27271;45.412;10.852;2022-07-15T04:33:01;6.28;;;4.43;;
41546;SDS011;27271;45.412;10.852;2022-07-15T04:36:25;7.57;;;5.13;;
41546;SDS011;27271;45.412;10.852;2022-07-15T04:39:48;11.70;;;6.35;;
41546;SDS011;27271;45.412;10.852;2022-07-15T04:43:10;7.38;;;5.45;;
41546;SDS011;27271;45.412;10.852;2022-07-15T04:46:36;12.90;;;6.68;;
41546;SDS011;27271;45.412;10.852;2022-07-15T04:50:36;6.97;;;5.10;;
41546;SDS011;27271;45.412;10.852;2022-07-15T04:54:08;7.47;;;5.00;;
41546;SDS011;27271;45.412;10.852;2022-07-15T04:57:31;12.07;;;5.93;;
41546;SDS011;27271;45.412;10.852;2022-07-15T05:00:56;12.38;;;5.40;;
41546;SDS011;27271;45.412;10.852;2022-07-15T05:04:19;9.73;;;5.50;;
41546;SDS011;27271;45.412;10.852;2022-07-15T05:07:42;9.88;;;5.63;;
41546;SDS011;27271;45.412;10.852;2022-07-15T05:11:05;12.15;;;5.88;;
41546;SDS011;27271;45.412;10.852;2022-07-15T05:14:27;18.02;;;7.60;;
41546;SDS011;27271;45.412;10.852;2022-07-15T05:17:54;9.50;;;5.93;;
41546;SDS011;27271;45.412;10.852;2022-07-15T05:21:17;9.32;;;5.93;;
41546;SDS011;27271;45.412;10.852;2022-07-15T05:24:46;13.77;;;6.45;;
41546;SDS011;27271;45.412;10.852;2022-07-15T05:28:09;10.43;;;5.55;;
41546;SDS011;27271;45.412;10.852;2022-07-15T05:31:31;8.00;;;6.05;;
41546;SDS011;27271;45.412;10.852;2022-07-15T05:34:55;8.57;;;6.10;;
41546;SDS011;27271;45.412;10.852;2022-07-15T05:38:17;6.95;;;5.50;;
41546;SDS011;27271;45.412;10.852;2022-07-15T05:41:40;7.43;;;6.38;;
41546;SDS011;27271;45.412;10.852;2022-07-15T05:45:09;7.75;;;5.68;;
41546;SDS011;27271;45.412;10.852;2022-07-15T05:48:36;10.38;;;6.07;;
41546;SDS011;27271;45.412;10.852;2022-07-15T05:52:01;12.23;;;6.13;;
41546;SDS011;27271;45.412;10.852;2022-07-15T05:55:24;7.13;;;5.53;;
41546;SDS011;27271;45.412;10.852;2022-07-15T05:58:46;13.55;;;5.78;;
41546;SDS011;27271;45.412;10.852;2022-07-15T06:02:09;6.32;;;4.60;;
41546;SDS011;27271;45.412;10.852;2022-07-15T06:05:33;7.43;;;4.60;;
41546;SDS011;27271;45.412;10.852;2022-07-15T06:08:57;9.15;;;6.43;;
41546;SDS011;27271;45.412;10.852;2022-07-15T06:12:19;9.60;;;7.22;;
41546;SDS011;27271;45.412;10.852;2022-07-15T06:15:42;8.65;;;7.00;;
41546;SDS011;27271;45.412;10.852;2022-07-15T06:19:11;13.73;;;7.97;;
41546;SDS011;27271;45.412;10.852;2022-07-15T06:22:33;9.88;;;7.75;;
41546;SDS011;27271;45.412;10.852;2022-07-15T06:25:55;9.70;;;6.85;;
41546;SDS011;27271;45.412;10.852;2022-07-15T06:29:20;10.82;;;6.05;;
41546;SDS011;27271;45.412;10.852;2022-07-15T06:32:43;7.40;;;5.97;;
41546;SDS011;27271;45.412;10.852;2022-07-15T06:36:05;7.60;;;5.28;;
41546;SDS011;27271;45.412;10.852;2022-07-15T06:39:29;8.48;;;5.63;;
41546;SDS011;27271;45.412;10.852;2022-07-15T06:42:51;7.45;;;5.18;;
41546;SDS011;27271;45.412;10.852;2022-07-15T06:46:20;5.70;;;4.50;;
41546;SDS011;27271;45.412;10.852;2022-07-15T06:49:44;4.93;;;4.13;;
41546;SDS011;27271;45.412;10.852;2022-07-15T06:53:07;4.05;;;3.40;;
41546;SDS011;27271;45.412;10.852;2022-07-15T06:56:29;4.72;;;3.03;;
41546;SDS011;27271;45.412;10.852;2022-07-15T06:59:51;3.25;;;2.95;;
41546;SDS011;27271;45.412;10.852;2022-07-15T07:03:18;3.80;;;2.97;;
41546;SDS011;27271;45.412;10.852;2022-07-15T07:07:01;6.10;;;3.10;;
41546;SDS011;27271;45.412;10.852;2022-07-15T07:10:23;3.28;;;2.97;;
41546;SDS011;27271;45.412;10.852;2022-07-15T07:13:49;5.97;;;3.55;;
41546;SDS011;27271;45.412;10.852;2022-07-15T07:17:12;3.83;;;3.50;;
41546;SDS011;27271;45.412;10.852;2022-07-15T07:20:35;5.63;;;3.47;;
41546;SDS011;27271;45.412;10.852;2022-07-15T07:23:58;4.85;;;3.92;;
41546;SDS011;27271;45.412;10.852;2022-07-15T07:27:21;4.90;;;3.83;;
41546;SDS011;27271;45.412;10.852;2022-07-15T07:30:44;3.33;;;3.03;;
41546;SDS011;27271;45.412;10.852;2022-07-15T07:34:08;3.35;;;2.70;;
41546;SDS011;27271;45.412;10.852;2022-07-15T07:37:35;5.93;;;3.75;;
41546;SDS011;27271;45.412;10.852;2022-07-15T07:40:59;5.22;;;3.22;;
41546;SDS011;27271;45.412;10.852;2022-07-15T07:44:22;3.30;;;3.00;;
41546;SDS011;27271;45.412;10.852;2022-07-15T07:47:44;6.35;;;3.05;;
41546;SDS011;27271;45.412;10.852;2022-07-15T07:51:07;4.50;;;4.05;;
41546;SDS011;27271;45.412;10.852;2022-07-15T07:54:31;3.42;;;3.13;;
41546;SDS011;27271;45.412;10.852;2022-07-15T07:57:55;7.03;;;3.65;;
41546;SDS011;27271;45.412;10.852;2022-07-15T08:01:20;4.88;;;3.15;;
41546;SDS011;27271;45.412;10.852;2022-07-15T08:04:44;3.05;;;2.72;;
41546;SDS011;27271;45.412;10.852;2022-07-15T08:08:11;5.70;;;3.22;;
41546;SDS011;27271;45.412;10.852;2022-07-15T08:11:38;10.33;;;3.47;;
41546;SDS011;27271;45.412;10.852;2022-07-15T08:15:04;3.28;;;2.85;;
41546;SDS011;27271;45.412;10.852;2022-07-15T08:18:27;2.95;;;2.63;;
41546;SDS011;27271;45.412;10.852;2022-07-15T08:21:50;3.70;;;2.63;;
41546;SDS011;27271;45.412;10.852;2022-07-15T08:25:14;2.67;;;2.20;;
41546;SDS011;27271;45.412;10.852;2022-07-15T08:28:37;6.28;;;2.78;;
41546;SDS011;27271;45.412;10.852;2022-07-15T08:32:20;4.57;;;3.13;;
41546;SDS011;27271;45.412;10.852;2022-07-15T08:35:42;3.58;;;2.90;;
41546;SDS011;27271;45.412;10.852;2022-07-15T08:39:05;5.68;;;2.40;;
41546;SDS011;27271;45.412;10.852;2022-07-15T08:42:31;5.15;;;2.85;;
41546;SDS011;27271;45.412;10.852;2022-07-15T08:45:53;4.18;;;2.78;;
41546;SDS011;27271;45.412;10.852;2022-07-15T08:49:24;5.47;;;2.90;;
41546;SDS011;27271;45.412;10.852;2022-07-15T08:52:51;3.42;;;2.85;;
41546;SDS011;27271;45.412;10.852;2022-07-15T08:56:16;4.50;;;2.85;;
41546;SDS011;27271;45.412;10.852;2022-07-15T08:59:43;4.53;;;3.50;;
41546;SDS011;27271;45.412;10.852;2022-07-15T09:03:08;3.47;;;3.17;;
41546;SDS011;27271;45.412;10.852;2022-07-15T09:06:32;3.15;;;2.85;;
41546;SDS011;27271;45.412;10.852;2022-07-15T09:09:56;5.38;;;3.08;;
41546;SDS011;27271;45.412;10.852;2022-07-15T09:13:38;3.42;;;3.08;;
41546;SDS011;27271;45.412;10.852;2022-07-15T09:20:57;4.60;;;3.55;;
41546;SDS011;27271;45.412;10.852;2022-07-15T09:24:20;3.00;;;2.78;;
41546;SDS011;27271;45.412;10.852;2022-07-15T09:27:51;3.88;;;3.53;;
41546;SDS011;27271;45.412;10.852;2022-07-15T09:31:14;5.70;;;2.65;;
41546;SDS011;27271;45.412;10.852;2022-07-15T09:35:06;4.25;;;3.50;;
41546;SDS011;27271;45.412;10.852;2022-07-15T09:38:51;3.55;;;3.25;;
41546;SDS011;27271;45.412;10.852;2022-07-15T09:42:31;5.13;;;3.60;;
41546;SDS011;27271;45.412;10.852;2022-07-15T09:45:58;4.82;;;3.58;;
41546;SDS011;27271;45.412;10.852;2022-07-15T09:52:45;5.57;;;3.95;;
41546;SDS011;27271;45.412;10.852;2022-07-15T09:56:09;4.10;;;3.47;;
41546;SDS011;27271;45.412;10.852;2022-07-15T09:59:38;4.57;;;4.18;;
41546;SDS011;27271;45.412;10.852;2022-07-15T10:03:01;4.82;;;3.80;;
41546;SDS011;27271;45.412;10.852;2022-07-15T10:06:25;4.88;;;4.05;;
41546;SDS011;27271;45.412;10.852;2022-07-15T10:09:49;3.97;;;3.55;;
41546;SDS011;27271;45.412;10.852;2022-07-15T10:17:13;6.38;;;4.70;;
41546;SDS011;27271;45.412;10.852;2022-07-15T10:20:52;5.13;;;4.28;;
41546;SDS011;27271;45.412;10.852;2022-07-15T10:32:24;6.30;;;3.80;;
41546;SDS011;27271;45.412;10.852;2022-07-15T10:36:03;5.53;;;3.80;;
41546;SDS011;27271;45.412;10.852;2022-07-15T10:39:28;4.45;;;4.05;;
41546;SDS011;27271;45.412;10.852;2022-07-15T10:43:12;6.18;;;4.43;;
41546;SDS011;27271;45.412;10.852;2022-07-15T10:46:39;4.95;;;4.03;;
41546;SDS011;27271;45.412;10.852;2022-07-15T10:50:34;5.15;;;4.65;;
41546;SDS011;27271;45.412;10.852;2022-07-15T10:53:57;4.68;;;4.20;;
41546;SDS011;27271;45.412;10.852;2022-07-15T10:57:20;5.65;;;4.38;;
41546;SDS011;27271;45.412;10.852;2022-07-15T11:01:10;7.78;;;5.30;;
41546;SDS011;27271;45.412;10.852;2022-07-15T11:04:48;7.85;;;4.57;;
41546;SDS011;27271;45.412;10.852;2022-07-15T11:11:54;7.07;;;4.50;;
41546;SDS011;27271;45.412;10.852;2022-07-15T11:15:22;5.88;;;4.60;;
41546;SDS011;27271;45.412;10.852;2022-07-15T11:18:49;11.00;;;5.32;;
41546;SDS011;27271;45.412;10.852;2022-07-15T11:22:14;7.13;;;5.32;;
41546;SDS011;27271;45.412;10.852;2022-07-15T11:25:42;8.02;;;5.22;;
41546;SDS011;27271;45.412;10.852;2022-07-15T11:29:05;8.95;;;5.25;;
41546;SDS011;27271;45.412;10.852;2022-07-15T11:32:31;6.28;;;5.68;;
41546;SDS011;27271;45.412;10.852;2022-07-15T11:36:00;6.18;;;5.20;;
41546;SDS011;27271;45.412;10.852;2022-07-15T11:39:27;6.38;;;5.78;;
41546;SDS011;27271;45.412;10.852;2022-07-15T11:42:49;6.28;;;4.97;;
41546;SDS011;27271;45.412;10.852;2022-07-15T11:46:31;7.18;;;5.03;;
41546;SDS011;27271;45.412;10.852;2022-07-15T11:49:57;8.07;;;6.07;;
41546;SDS011;27271;45.412;10.852;2022-07-15T11:53:23;8.32;;;5.75;;
41546;SDS011;27271;45.412;10.852;2022-07-15T11:56:56;8.55;;;5.63;;
41546;SDS011;27271;45.412;10.852;2022-07-15T12:00:27;5.90;;;5.30;;
41546;SDS011;27271;45.412;10.852;2022-07-15T12:03:52;8.20;;;5.10;;
41546;SDS011;27271;45.412;10.852;2022-07-15T12:07:18;9.18;;;6.32;;
41546;SDS011;27271;45.412;10.852;2022-07-15T12:10:41;6.65;;;5.95;;
41546;SDS011;27271;45.412;10.852;2022-07-15T12:14:09;6.18;;;5.63;;
41546;SDS011;27271;45.412;10.852;2022-07-15T12:17:33;5.45;;;4.95;;
41546;SDS011;27271;45.412;10.852;2022-07-15T12:20:56;6.10;;;5.53;;
41546;SDS011;27271;45.412;10.852;2022-07-15T12:24:21;8.23;;;6.18;;
41546;SDS011;27271;45.412;10.852;2022-07-15T12:27:57;8.57;;;5.35;;
41546;SDS011;27271;45.412;10.852;2022-07-15T12:31:28;6.35;;;5.72;;
41546;SDS011;27271;45.412;10.852;2022-07-15T12:34:53;5.57;;;5.07;;
41546;SDS011;27271;45.412;10.852;2022-07-15T12:38:30;7.15;;;5.47;;
41546;SDS011;27271;45.412;10.852;2022-07-15T12:41:57;8.45;;;5.20;;
41546;SDS011;27271;45.412;10.852;2022-07-15T12:45:24;5.97;;;5.30;;
41546;SDS011;27271;45.412;10.852;2022-07-15T12:48:51;8.45;;;6.28;;
41546;SDS011;27271;45.412;10.852;2022-07-15T12:52:17;6.13;;;4.97;;
41546;SDS011;27271;45.412;10.852;2022-07-15T12:55:42;7.15;;;6.10;;
41546;SDS011;27271;45.412;10.852;2022-07-15T12:59:09;5.63;;;5.10;;
41546;SDS011;27271;45.412;10.852;2022-07-15T13:06:17;6.43;;;5.82;;
41546;SDS011;27271;45.412;10.852;2022-07-15T13:09:41;7.10;;;5.47;;
41546;SDS011;27271;45.412;10.852;2022-07-15T13:13:04;5.35;;;4.85;;
41546;SDS011;27271;45.412;10.852;2022-07-15T13:16:26;8.63;;;5.18;;
41546;SDS011;27271;45.412;10.852;2022-07-15T13:19:49;7.13;;;5.18;;
41546;SDS011;27271;45.412;10.852;2022-07-15T13:23:11;7.22;;;5.10;;
41546;SDS011;27271;45.412;10.852;2022-07-15T13:26:33;9.35;;;5.20;;
41546;SDS011;27271;45.412;10.852;2022-07-15T13:29:55;5.55;;;5.00;;
41546;SDS011;27271;45.412;10.852;2022-07-15T13:33:17;5.63;;;5.13;;
41546;SDS011;27271;45.412;10.852;2022-07-15T13:36:40;7.05;;;4.82;;
41546;SDS011;27271;45.412;10.852;2022-07-15T13:40:02;7.45;;;5.60;;
41546;SDS011;27271;45.412;10.852;2022-07-15T13:43:26;7.07;;;5.40;;
41546;SDS011;27271;45.412;10.852;2022-07-15T13:46:49;5.78;;;5.18;;
41546;SDS011;27271;45.412;10.852;2022-07-15T13:50:11;5.10;;;4.60;;
41546;SDS011;27271;45.412;10.852;2022-07-15T13:53:52;6.78;;;5.47;;
41546;SDS011;27271;45.412;10.852;2022-07-15T13:57:16;6.18;;;5.25;;
41546;SDS011;27271;45.412;10.852;2022-07-15T14:00:38;6.85;;;5.32;;
41546;SDS011;27271;45.412;10.852;2022-07-15T14:04:01;6.13;;;4.72;;
41546;SDS011;27271;45.412;10.852;2022-07-15T14:07:23;5.30;;;4.80;;
41546;SDS011;27271;45.412;10.852;2022-07-15T14:10:45;5.80;;;5.28;;
41546;SDS011;27271;45.412;10.852;2022-07-15T14:14:07;7.53;;;5.38;;
41546;SDS011;27271;45.412;10.852;2022-07-15T14:17:29;6.90;;;6.03;;
41546;SDS011;27271;45.412;10.852;2022-07-15T14:20:52;5.55;;;4.90;;
41546;SDS011;27271;45.412;10.852;2022-07-15T14:24:14;5.80;;;4.72;;
41546;SDS011;27271;45.412;10.852;2022-07-15T14:27:36;6.32;;;5.72;;
41546;SDS011;27271;45.412;10.852;2022-07-15T14:30:58;5.47;;;4.97;;
41546;SDS011;27271;45.412;10.852;2022-07-15T14:34:21;5.63;;;5.00;;
41546;SDS011;27271;45.412;10.852;2022-07-15T14:37:43;6.82;;;4.63;;
41546;SDS011;27271;45.412;10.852;2022-07-15T14:41:06;6.03;;;5.40;;
41546;SDS011;27271;45.412;10.852;2022-07-15T14:44:28;5.22;;;4.72;;
41546;SDS011;27271;45.412;10.852;2022-07-15T14:47:50;5.55;;;4.90;;
41546;SDS011;27271;45.412;10.852;2022-07-15T14:51:12;5.80;;;4.70;;
41546;SDS011;27271;45.412;10.852;2022-07-15T14:54:34;6.90;;;4.97;;
41546;SDS011;27271;45.412;10.852;2022-07-15T14:57:57;4.70;;;4.30;;
41546;SDS011;27271;45.412;10.852;2022-07-15T15:01:22;5.40;;;4.95;;
41546;SDS011;27271;45.412;10.852;2022-07-15T15:04:44;7.22;;;4.95;;
41546;SDS011;27271;45.412;10.852;2022-07-15T15:08:06;6.20;;;5.28;;
41546;SDS011;27271;45.412;10.852;2022-07-15T15:15:28;5.13;;;4.68;;
41546;SDS011;27271;45.412;10.852;2022-07-15T15:18:51;6.53;;;4.30;;
41546;SDS011;27271;45.412;10.852;2022-07-15T15:22:13;5.85;;;5.30;;
41546;SDS011;27271;45.412;10.852;2022-07-15T15:25:35;6.22;;;4.80;;
41546;SDS011;27271;45.412;10.852;2022-07-15T15:29:16;6.03;;;4.63;;
41546;SDS011;27271;45.412;10.852;2022-07-15T15:32:38;5.45;;;4.93;;
41546;SDS011;27271;45.412;10.852;2022-07-15T15:36:00;4.63;;;4.30;;
41546;SDS011;27271;45.412;10.852;2022-07-15T15:39:22;5.63;;;4.97;;
41546;SDS011;27271;45.412;10.852;2022-07-15T15:42:44;5.65;;;4.18;;
41546;SDS011;27271;45.412;10.852;2022-07-15T15:46:06;4.90;;;4.45;;
41546;SDS011;27271;45.412;10.852;2022-07-15T15:49:29;6.95;;;4.35;;
41546;SDS011;27271;45.412;10.852;2022-07-15T15:52:51;4.82;;;4.38;;
41546;SDS011;27271;45.412;10.852;2022-07-15T15:56:13;5.85;;;3.90;;
41546;SDS011;27271;45.412;10.852;2022-07-15T15:59:35;5.93;;;4.20;;
41546;SDS011;27271;45.412;10.852;2022-07-15T16:02:57;5.63;;;4.00;;
41546;SDS011;27271;45.412;10.852;2022-07-15T16:06:20;4.93;;;4.43;;
41546;SDS011;27271;45.412;10.852;2022-07-15T16:09:44;8.07;;;5.55;;
41546;SDS011;27271;45.412;10.852;2022-07-15T16:13:06;6.85;;;4.38;;
41546;SDS011;27271;45.412;10.852;2022-07-15T16:16:28;4.88;;;4.35;;
41546;SDS011;27271;45.412;10.852;2022-07-15T16:19:50;4.13;;;3.60;;
41546;SDS011;27271;45.412;10.852;2022-07-15T16:23:13;4.63;;;4.22;;
41546;SDS011;27271;45.412;10.852;2022-07-15T16:26:35;4.70;;;4.30;;
41546;SDS011;27271;45.412;10.852;2022-07-15T16:29:57;5.13;;;4.60;;
41546;SDS011;27271;45.412;10.852;2022-07-15T16:33:19;4.80;;;4.28;;
41546;SDS011;27271;45.412;10.852;2022-07-15T16:36:41;6.15;;;4.07;;
41546;SDS011;27271;45.412;10.852;2022-07-15T16:40:04;4.32;;;4.00;;
41546;SDS011;27271;45.412;10.852;2022-07-15T16:43:26;3.95;;;3.55;;
41546;SDS011;27271;45.412;10.852;2022-07-15T16:46:48;4.07;;;3.78;;
41546;SDS011;27271;45.412;10.852;2022-07-15T16:50:10;4.80;;;3.60;;
41546;SDS011;27271;45.412;10.852;2022-07-15T16:53:33;3.72;;;3.35;;
41546;SDS011;27271;45.412;10.852;2022-07-15T16:56:55;4.28;;;3.40;;
41546;SDS011;27271;45.412;10.852;2022-07-15T17:00:17;5.32;;;3.80;;
41546;SDS011;27271;45.412;10.852;2022-07-15T17:03:45;5.18;;;3.53;;
41546;SDS011;27271;45.412;10.852;2022-07-15T17:07:07;4.13;;;3.70;;
41546;SDS011;27271;45.412;10.852;2022-07-15T17:10:29;4.53;;;4.13;;
41546;SDS011;27271;45.412;10.852;2022-07-15T17:13:53;7.00;;;5.03;;
41546;SDS011;27271;45.412;10.852;2022-07-15T17:17:15;5.03;;;4.60;;
41546;SDS011;27271;45.412;10.852;2022-07-15T17:20:38;9.20;;;4.60;;
41546;SDS011;27271;45.412;10.852;2022-07-15T17:24:01;4.80;;;4.35;;
41546;SDS011;27271;45.412;10.852;2022-07-15T17:27:24;5.75;;;4.38;;
41546;SDS011;27271;45.412;10.852;2022-07-15T17:30:46;5.40;;;4.88;;
41546;SDS011;27271;45.412;10.852;2022-07-15T17:34:08;6.13;;;5.07;;
41546;SDS011;27271;45.412;10.852;2022-07-15T17:37:30;5.90;;;4.55;;
41546;SDS011;27271;45.412;10.852;2022-07-15T17:40:53;5.25;;;4.75;;
41546;SDS011;27271;45.412;10.852;2022-07-15T17:44:15;6.00;;;4.63;;
41546;SDS011;27271;45.412;10.852;2022-07-15T17:47:37;7.97;;;4.80;;
41546;SDS011;27271;45.412;10.852;2022-07-15T17:50:59;4.90;;;4.40;;
41546;SDS011;27271;45.412;10.852;2022-07-15T17:54:22;3.75;;;3.45;;
41546;SDS011;27271;45.412;10.852;2022-07-15T17:57:44;7.95;;;3.28;;
41546;SDS011;27271;45.412;10.852;2022-07-15T18:01:06;5.30;;;3.17;;
41546;SDS011;27271;45.412;10.852;2022-07-15T18:04:29;5.32;;;3.03;;
41546;SDS011;27271;45.412;10.852;2022-07-15T18:07:51;4.55;;;3.25;;
41546;SDS011;27271;45.412;10.852;2022-07-15T18:11:13;4.15;;;3.22;;
41546;SDS011;27271;45.412;10.852;2022-07-15T18:14:35;5.18;;;3.28;;
41546;SDS011;27271;45.412;10.852;2022-07-15T18:17:57;7.15;;;3.90;;
41546;SDS011;27271;45.412;10.852;2022-07-15T18:21:19;5.22;;;3.22;;
41546;SDS011;27271;45.412;10.852;2022-07-15T18:24:41;3.25;;;2.92;;
41546;SDS011;27271;45.412;10.852;2022-07-15T18:28:04;3.35;;;2.90;;
41546;SDS011;27271;45.412;10.852;2022-07-15T18:31:27;2.97;;;2.67;;
41546;SDS011;27271;45.412;10.852;2022-07-15T18:34:49;3.28;;;2.60;;
41546;SDS011;27271;45.412;10.852;2022-07-15T18:38:11;3.92;;;2.78;;
41546;SDS011;27271;45.412;10.852;2022-07-15T18:41:48;3.08;;;2.42;;
41546;SDS011;27271;45.412;10.852;2022-07-15T18:45:10;3.53;;;3.20;;
41546;SDS011;27271;45.412;10.852;2022-07-15T18:48:33;4.85;;;2.88;;
41546;SDS011;27271;45.412;10.852;2022-07-15T18:51:56;4.45;;;3.10;;
41546;SDS011;27271;45.412;10.852;2022-07-15T18:55:18;4.47;;;2.40;;
41546;SDS011;27271;45.412;10.852;2022-07-15T18:58:40;4.65;;;2.70;;
41546;SDS011;27271;45.412;10.852;2022-07-15T19:02:02;4.93;;;2.67;;
41546;SDS011;27271;45.412;10.852;2022-07-15T19:05:25;5.00;;;2.58;;
41546;SDS011;27271;45.412;10.852;2022-07-15T19:08:47;3.72;;;2.63;;
41546;SDS011;27271;45.412;10.852;2022-07-15T19:12:09;2.97;;;2.38;;
41546;SDS011;27271;45.412;10.852;2022-07-15T19:15:31;3.80;;;2.33;;
41546;SDS011;27271;45.412;10.852;2022-07-15T19:18:53;4.88;;;2.55;;
41546;SDS011;27271;45.412;10.852;2022-07-15T19:22:16;2.75;;;2.47;;
41546;SDS011;27271;45.412;10.852;2022-07-15T19:25:38;2.47;;;2.28;;
41546;SDS011;27271;45.412;10.852;2022-07-15T19:29:00;2.67;;;2.33;;
41546;SDS011;27271;45.412;10.852;2022-07-15T19:32:23;5.28;;;2.33;;
41546;SDS011;27271;45.412;10.852;2022-07-15T19:35:45;4.15;;;2.50;;
41546;SDS011;27271;45.412;10.852;2022-07-15T19:39:07;3.53;;;2.20;;
41546;SDS011;27271;45.412;10.852;2022-07-15T19:42:29;3.45;;;2.50;;
41546;SDS011;27271;45.412;10.852;2022-07-15T19:45:51;3.20;;;2.40;;
41546;SDS011;27271;45.412;10.852;2022-07-15T19:49:13;4.75;;;2.60;;
41546;SDS011;27271;45.412;10.852;2022-07-15T19:52:35;3.47;;;2.17;;
41546;SDS011;27271;45.412;10.852;2022-07-15T19:55:57;2.72;;;2.30;;
41546;SDS011;27271;45.412;10.852;2022-07-15T19:59:19;4.45;;;2.47;;
41546;SDS011;27271;45.412;10.852;2022-07-15T20:06:24;5.03;;;2.60;;
41546;SDS011;27271;45.412;10.852;2022-07-15T20:09:46;3.40;;;2.45;;
41546;SDS011;27271;45.412;10.852;2022-07-15T20:13:08;2.63;;;2.22;;
41546;SDS011;27271;45.412;10.852;2022-07-15T20:16:30;2.35;;;2.15;;
41546;SDS011;27271;45.412;10.852;2022-07-15T20:19:53;2.67;;;2.33;;
41546;SDS011;27271;45.412;10.852;2022-07-15T20:23:15;3.15;;;2.88;;
41546;SDS011;27271;45.412;10.852;2022-07-15T20:26:37;2.60;;;2.40;;
41546;SDS011;27271;45.412;10.852;2022-07-15T20:29:59;4.75;;;2.47;;
41546;SDS011;27271;45.412;10.852;2022-07-15T20:33:21;3.13;;;2.40;;
41546;SDS011;27271;45.412;10.852;2022-07-15T20:36:44;2.42;;;2.22;;
41546;SDS011;27271;45.412;10.852;2022-07-15T20:40:06;4.30;;;2.22;;
41546;SDS011;27271;45.412;10.852;2022-07-15T20:43:29;2.90;;;2.25;;
41546;SDS011;27271;45.412;10.852;2022-07-15T20:46:51;2.45;;;2.25;;